sensor_id;sensor_type;location;lat;lon;timestamp;P1;durP1;ratioP1;P2;durP2;ratioP2
11612;SDS011;5862;48.718;9.108;2022-07-18T00:01:16;1.05;;;0.80;;
11612;SDS011;5862;48.718;9.108;2022-07-18T00:03:45;1.33;;;0.88;;
11612;SDS011;5862;48.718;9.108;2022-07-18T00:06:11;1.02;;;0.82;;
11612;SDS011;5862;48.718;9.108;2022-07-18T00:08:38;0.75;;;0.70;;
11612;SDS011;5862;48.718;9.108;2022-07-18T00:11:04;0.75;;;0.75;;
11612;SDS011;5862;48.718;9.108;2022-07-18T00:13:33;1.30;;;0.80;;
11612;SDS011;5862;48.718;9.108;2022-07-18T00:16:02;0.57;;;0.57;;
11612;SDS011;5862;48.718;9.108;2022-07-18T00:18:29;1.35;;;0.68;;
11612;SDS011;5862;48.718;9.108;2022-07-18T00:20:56;2.25;;;0.75;;
11612;SDS011;5862;48.718;9.108;2022-07-18T00:23:24;0.70;;;0.70;;
11612;SDS011;5862;48.718;9.108;2022-07-18T00:25:51;0.95;;;0.80;;
11612;SDS011;5862;48.718;9.108;2022-07-18T00:28:18;0.65;;;0.65;;
11612;SDS011;5862;48.718;9.108;2022-07-18T00:30:47;0.80;;;0.80;;
11612;SDS011;5862;48.718;9.108;2022-07-18T00:33:14;0.98;;;0.70;;
11612;SDS011;5862;48.718;9.108;2022-07-18T00:35:43;0.90;;;0.70;;
11612;SDS011;5862;48.718;9.108;2022-07-18T00:38:10;0.95;;;0.80;;
11612;SDS011;5862;48.718;9.108;2022-07-18T00:40:38;0.90;;;0.70;;
11612;SDS011;5862;48.718;9.108;2022-07-18T00:43:05;1.00;;;0.90;;
11612;SDS011;5862;48.718;9.108;2022-07-18T00:45:36;0.80;;;0.65;;
11612;SDS011;5862;48.718;9.108;2022-07-18T00:48:06;0.93;;;0.70;;
11612;SDS011;5862;48.718;9.108;2022-07-18T00:50:33;1.35;;;0.85;;
11612;SDS011;5862;48.718;9.108;2022-07-18T00:52:59;0.90;;;0.70;;
11612;SDS011;5862;48.718;9.108;2022-07-18T00:55:28;0.57;;;0.50;;
11612;SDS011;5862;48.718;9.108;2022-07-18T00:57:59;2.22;;;0.90;;
11612;SDS011;5862;48.718;9.108;2022-07-18T01:00:28;0.55;;;0.50;;
11612;SDS011;5862;48.718;9.108;2022-07-18T01:03:13;0.70;;;0.60;;
11612;SDS011;5862;48.718;9.108;2022-07-18T01:05:40;0.63;;;0.60;;
11612;SDS011;5862;48.718;9.108;2022-07-18T01:08:09;0.82;;;0.70;;
11612;SDS011;5862;48.718;9.108;2022-07-18T01:10:38;0.88;;;0.57;;
11612;SDS011;5862;48.718;9.108;2022-07-18T01:13:04;0.88;;;0.80;;
11612;SDS011;5862;48.718;9.108;2022-07-18T01:15:34;0.75;;;0.63;;
11612;SDS011;5862;48.718;9.108;2022-07-18T01:18:01;0.88;;;0.80;;
11612;SDS011;5862;48.718;9.108;2022-07-18T01:20:28;0.65;;;0.65;;
11612;SDS011;5862;48.718;9.108;2022-07-18T01:22:55;1.15;;;0.50;;
11612;SDS011;5862;48.718;9.108;2022-07-18T01:25:22;1.30;;;0.70;;
11612;SDS011;5862;48.718;9.108;2022-07-18T01:27:54;0.70;;;0.63;;
11612;SDS011;5862;48.718;9.108;2022-07-18T01:30:21;0.60;;;0.57;;
11612;SDS011;5862;48.718;9.108;2022-07-18T01:32:54;0.60;;;0.60;;
11612;SDS011;5862;48.718;9.108;2022-07-18T01:35:25;2.53;;;0.75;;
11612;SDS011;5862;48.718;9.108;2022-07-18T01:37:55;1.33;;;0.80;;
11612;SDS011;5862;48.718;9.108;2022-07-18T01:40:23;1.10;;;0.55;;
11612;SDS011;5862;48.718;9.108;2022-07-18T01:42:50;0.60;;;0.50;;
11612;SDS011;5862;48.718;9.108;2022-07-18T01:45:19;0.90;;;0.52;;
11612;SDS011;5862;48.718;9.108;2022-07-18T01:47:49;1.20;;;0.60;;
11612;SDS011;5862;48.718;9.108;2022-07-18T01:50:16;0.63;;;0.60;;
11612;SDS011;5862;48.718;9.108;2022-07-18T01:52:45;0.60;;;0.60;;
11612;SDS011;5862;48.718;9.108;2022-07-18T01:55:14;0.70;;;0.70;;
11612;SDS011;5862;48.718;9.108;2022-07-18T01:57:40;0.93;;;0.80;;
11612;SDS011;5862;48.718;9.108;2022-07-18T02:00:08;1.05;;;0.90;;
11612;SDS011;5862;48.718;9.108;2022-07-18T02:02:35;0.80;;;0.60;;
11612;SDS011;5862;48.718;9.108;2022-07-18T02:05:07;1.02;;;0.73;;
11612;SDS011;5862;48.718;9.108;2022-07-18T02:07:38;2.20;;;0.70;;
11612;SDS011;5862;48.718;9.108;2022-07-18T02:10:07;1.05;;;0.60;;
11612;SDS011;5862;48.718;9.108;2022-07-18T02:12:40;0.88;;;0.40;;
11612;SDS011;5862;48.718;9.108;2022-07-18T02:15:08;0.75;;;0.55;;
11612;SDS011;5862;48.718;9.108;2022-07-18T02:17:35;0.88;;;0.80;;
11612;SDS011;5862;48.718;9.108;2022-07-18T02:20:06;1.00;;;0.80;;
11612;SDS011;5862;48.718;9.108;2022-07-18T02:22:33;0.93;;;0.88;;
11612;SDS011;5862;48.718;9.108;2022-07-18T02:25:00;1.55;;;0.60;;
11612;SDS011;5862;48.718;9.108;2022-07-18T02:27:29;1.63;;;0.70;;
11612;SDS011;5862;48.718;9.108;2022-07-18T02:29:58;0.90;;;0.60;;
11612;SDS011;5862;48.718;9.108;2022-07-18T02:32:27;0.70;;;0.60;;
11612;SDS011;5862;48.718;9.108;2022-07-18T02:34:53;0.82;;;0.50;;
11612;SDS011;5862;48.718;9.108;2022-07-18T02:37:22;1.25;;;0.65;;
11612;SDS011;5862;48.718;9.108;2022-07-18T02:39:49;0.50;;;0.50;;
11612;SDS011;5862;48.718;9.108;2022-07-18T02:42:15;0.80;;;0.55;;
11612;SDS011;5862;48.718;9.108;2022-07-18T02:44:41;0.73;;;0.60;;
11612;SDS011;5862;48.718;9.108;2022-07-18T02:47:10;1.70;;;0.63;;
11612;SDS011;5862;48.718;9.108;2022-07-18T02:49:39;1.63;;;0.60;;
11612;SDS011;5862;48.718;9.108;2022-07-18T02:52:08;0.60;;;0.50;;
11612;SDS011;5862;48.718;9.108;2022-07-18T02:54:38;2.05;;;0.70;;
11612;SDS011;5862;48.718;9.108;2022-07-18T02:57:05;0.93;;;0.50;;
11612;SDS011;5862;48.718;9.108;2022-07-18T02:59:36;1.05;;;0.50;;
11612;SDS011;5862;48.718;9.108;2022-07-18T03:02:05;1.15;;;0.80;;
11612;SDS011;5862;48.718;9.108;2022-07-18T03:04:34;0.60;;;0.60;;
11612;SDS011;5862;48.718;9.108;2022-07-18T03:07:01;2.05;;;0.68;;
11612;SDS011;5862;48.718;9.108;2022-07-18T03:09:27;0.30;;;0.30;;
11612;SDS011;5862;48.718;9.108;2022-07-18T03:11:54;0.50;;;0.40;;
11612;SDS011;5862;48.718;9.108;2022-07-18T03:14:26;1.13;;;0.60;;
11612;SDS011;5862;48.718;9.108;2022-07-18T03:16:57;0.98;;;0.60;;
11612;SDS011;5862;48.718;9.108;2022-07-18T03:19:24;0.80;;;0.55;;
11612;SDS011;5862;48.718;9.108;2022-07-18T03:21:56;1.35;;;0.63;;
11612;SDS011;5862;48.718;9.108;2022-07-18T03:24:25;0.60;;;0.52;;
11612;SDS011;5862;48.718;9.108;2022-07-18T03:26:51;0.60;;;0.60;;
11612;SDS011;5862;48.718;9.108;2022-07-18T03:29:18;1.05;;;0.60;;
11612;SDS011;5862;48.718;9.108;2022-07-18T03:31:45;0.90;;;0.50;;
11612;SDS011;5862;48.718;9.108;2022-07-18T03:34:13;1.02;;;0.60;;
11612;SDS011;5862;48.718;9.108;2022-07-18T03:36:40;1.85;;;0.60;;
11612;SDS011;5862;48.718;9.108;2022-07-18T03:39:09;0.68;;;0.68;;
11612;SDS011;5862;48.718;9.108;2022-07-18T03:41:37;0.70;;;0.65;;
11612;SDS011;5862;48.718;9.108;2022-07-18T03:44:03;1.30;;;0.70;;
11612;SDS011;5862;48.718;9.108;2022-07-18T03:46:32;1.58;;;0.80;;
11612;SDS011;5862;48.718;9.108;2022-07-18T03:49:00;0.70;;;0.63;;
11612;SDS011;5862;48.718;9.108;2022-07-18T03:51:28;1.20;;;0.60;;
11612;SDS011;5862;48.718;9.108;2022-07-18T03:53:55;0.55;;;0.50;;
11612;SDS011;5862;48.718;9.108;2022-07-18T03:56:21;0.73;;;0.73;;
11612;SDS011;5862;48.718;9.108;2022-07-18T03:58:48;0.70;;;0.55;;
11612;SDS011;5862;48.718;9.108;2022-07-18T04:01:14;1.02;;;0.60;;
11612;SDS011;5862;48.718;9.108;2022-07-18T04:03:41;0.40;;;0.40;;
11612;SDS011;5862;48.718;9.108;2022-07-18T04:06:08;0.63;;;0.63;;
11612;SDS011;5862;48.718;9.108;2022-07-18T04:08:34;0.90;;;0.60;;
11612;SDS011;5862;48.718;9.108;2022-07-18T04:11:01;1.20;;;0.65;;
11612;SDS011;5862;48.718;9.108;2022-07-18T04:13:27;0.50;;;0.50;;
11612;SDS011;5862;48.718;9.108;2022-07-18T04:15:56;0.50;;;0.50;;
11612;SDS011;5862;48.718;9.108;2022-07-18T04:18:23;0.95;;;0.70;;
11612;SDS011;5862;48.718;9.108;2022-07-18T04:20:54;1.05;;;0.60;;
11612;SDS011;5862;48.718;9.108;2022-07-18T04:23:21;1.15;;;0.82;;
11612;SDS011;5862;48.718;9.108;2022-07-18T04:25:50;0.80;;;0.60;;
11612;SDS011;5862;48.718;9.108;2022-07-18T04:28:17;0.80;;;0.70;;
11612;SDS011;5862;48.718;9.108;2022-07-18T04:30:46;1.42;;;0.88;;
11612;SDS011;5862;48.718;9.108;2022-07-18T04:33:15;0.90;;;0.73;;
11612;SDS011;5862;48.718;9.108;2022-07-18T04:35:41;0.80;;;0.70;;
11612;SDS011;5862;48.718;9.108;2022-07-18T04:38:10;0.70;;;0.52;;
11612;SDS011;5862;48.718;9.108;2022-07-18T04:40:42;0.65;;;0.52;;
11612;SDS011;5862;48.718;9.108;2022-07-18T04:43:10;0.60;;;0.55;;
11612;SDS011;5862;48.718;9.108;2022-07-18T04:45:37;1.85;;;0.40;;
11612;SDS011;5862;48.718;9.108;2022-07-18T04:48:05;0.50;;;0.40;;
11612;SDS011;5862;48.718;9.108;2022-07-18T04:50:37;0.43;;;0.40;;
11612;SDS011;5862;48.718;9.108;2022-07-18T04:53:03;0.30;;;0.30;;
11612;SDS011;5862;48.718;9.108;2022-07-18T04:55:34;0.30;;;0.30;;
11612;SDS011;5862;48.718;9.108;2022-07-18T04:58:06;0.80;;;0.57;;
11612;SDS011;5862;48.718;9.108;2022-07-18T05:00:35;0.40;;;0.30;;
11612;SDS011;5862;48.718;9.108;2022-07-18T05:03:01;0.25;;;0.25;;
11612;SDS011;5862;48.718;9.108;2022-07-18T05:05:30;0.50;;;0.50;;
11612;SDS011;5862;48.718;9.108;2022-07-18T05:08:02;0.50;;;0.50;;
11612;SDS011;5862;48.718;9.108;2022-07-18T05:10:29;0.40;;;0.40;;
11612;SDS011;5862;48.718;9.108;2022-07-18T05:12:55;0.55;;;0.50;;
11612;SDS011;5862;48.718;9.108;2022-07-18T05:15:25;1.38;;;0.80;;
11612;SDS011;5862;48.718;9.108;2022-07-18T05:17:51;0.98;;;0.77;;
11612;SDS011;5862;48.718;9.108;2022-07-18T05:20:19;2.80;;;0.98;;
11612;SDS011;5862;48.718;9.108;2022-07-18T05:22:49;1.98;;;1.30;;
11612;SDS011;5862;48.718;9.108;2022-07-18T05:25:17;1.25;;;1.10;;
11612;SDS011;5862;48.718;9.108;2022-07-18T05:27:47;2.70;;;1.23;;
11612;SDS011;5862;48.718;9.108;2022-07-18T05:30:14;2.50;;;1.63;;
11612;SDS011;5862;48.718;9.108;2022-07-18T05:32:47;1.40;;;1.30;;
11612;SDS011;5862;48.718;9.108;2022-07-18T05:35:16;2.28;;;1.33;;
11612;SDS011;5862;48.718;9.108;2022-07-18T05:37:42;1.80;;;1.42;;
11612;SDS011;5862;48.718;9.108;2022-07-18T05:40:12;2.08;;;1.17;;
11612;SDS011;5862;48.718;9.108;2022-07-18T05:42:40;1.30;;;1.10;;
11612;SDS011;5862;48.718;9.108;2022-07-18T05:45:19;2.47;;;1.33;;
11612;SDS011;5862;48.718;9.108;2022-07-18T05:47:47;1.85;;;0.93;;
11612;SDS011;5862;48.718;9.108;2022-07-18T05:50:16;4.03;;;1.80;;
11612;SDS011;5862;48.718;9.108;2022-07-18T05:52:43;5.18;;;1.60;;
11612;SDS011;5862;48.718;9.108;2022-07-18T05:55:10;1.48;;;1.38;;
11612;SDS011;5862;48.718;9.108;2022-07-18T05:57:39;3.28;;;1.48;;
11612;SDS011;5862;48.718;9.108;2022-07-18T06:00:06;4.65;;;1.52;;
11612;SDS011;5862;48.718;9.108;2022-07-18T06:02:35;1.50;;;1.25;;
11612;SDS011;5862;48.718;9.108;2022-07-18T06:05:03;1.40;;;1.30;;
11612;SDS011;5862;48.718;9.108;2022-07-18T06:07:51;2.92;;;1.35;;
11612;SDS011;5862;48.718;9.108;2022-07-18T06:10:18;2.28;;;1.20;;
11612;SDS011;5862;48.718;9.108;2022-07-18T06:12:44;2.53;;;1.38;;
11612;SDS011;5862;48.718;9.108;2022-07-18T06:15:11;2.33;;;1.42;;
11612;SDS011;5862;48.718;9.108;2022-07-18T06:17:41;2.08;;;1.20;;
11612;SDS011;5862;48.718;9.108;2022-07-18T06:20:08;2.85;;;1.30;;
11612;SDS011;5862;48.718;9.108;2022-07-18T06:22:35;2.13;;;1.30;;
11612;SDS011;5862;48.718;9.108;2022-07-18T06:25:02;2.75;;;1.23;;
11612;SDS011;5862;48.718;9.108;2022-07-18T06:27:32;1.55;;;1.10;;
11612;SDS011;5862;48.718;9.108;2022-07-18T06:30:04;4.60;;;1.45;;
11612;SDS011;5862;48.718;9.108;2022-07-18T06:32:32;2.72;;;1.40;;
11612;SDS011;5862;48.718;9.108;2022-07-18T06:34:59;3.05;;;1.50;;
11612;SDS011;5862;48.718;9.108;2022-07-18T06:37:27;2.30;;;1.48;;
11612;SDS011;5862;48.718;9.108;2022-07-18T06:39:54;1.60;;;1.27;;
11612;SDS011;5862;48.718;9.108;2022-07-18T06:42:28;2.90;;;1.40;;
11612;SDS011;5862;48.718;9.108;2022-07-18T06:44:57;1.20;;;1.10;;
11612;SDS011;5862;48.718;9.108;2022-07-18T06:47:23;2.05;;;1.35;;
11612;SDS011;5862;48.718;9.108;2022-07-18T06:49:50;1.80;;;1.10;;
11612;SDS011;5862;48.718;9.108;2022-07-18T06:52:16;2.15;;;1.20;;
11612;SDS011;5862;48.718;9.108;2022-07-18T06:54:43;1.60;;;1.20;;
11612;SDS011;5862;48.718;9.108;2022-07-18T06:57:09;3.20;;;1.40;;
11612;SDS011;5862;48.718;9.108;2022-07-18T06:59:40;1.23;;;1.13;;
11612;SDS011;5862;48.718;9.108;2022-07-18T07:02:14;1.95;;;1.35;;
11612;SDS011;5862;48.718;9.108;2022-07-18T07:04:43;1.65;;;1.33;;
11612;SDS011;5862;48.718;9.108;2022-07-18T07:07:14;2.22;;;1.42;;
11612;SDS011;5862;48.718;9.108;2022-07-18T07:09:41;1.75;;;1.30;;
11612;SDS011;5862;48.718;9.108;2022-07-18T07:12:08;1.33;;;1.10;;
11612;SDS011;5862;48.718;9.108;2022-07-18T07:14:38;2.00;;;1.20;;
11612;SDS011;5862;48.718;9.108;2022-07-18T07:17:07;2.47;;;1.23;;
11612;SDS011;5862;48.718;9.108;2022-07-18T07:19:33;2.47;;;1.30;;
11612;SDS011;5862;48.718;9.108;2022-07-18T07:22:05;1.45;;;1.30;;
11612;SDS011;5862;48.718;9.108;2022-07-18T07:24:34;2.95;;;1.33;;
11612;SDS011;5862;48.718;9.108;2022-07-18T07:27:00;2.60;;;1.30;;
11612;SDS011;5862;48.718;9.108;2022-07-18T07:29:26;1.67;;;1.13;;
11612;SDS011;5862;48.718;9.108;2022-07-18T07:31:53;2.10;;;1.10;;
11612;SDS011;5862;48.718;9.108;2022-07-18T07:34:22;3.47;;;1.27;;
11612;SDS011;5862;48.718;9.108;2022-07-18T07:36:48;1.88;;;1.20;;
11612;SDS011;5862;48.718;9.108;2022-07-18T07:39:17;1.90;;;1.30;;
11612;SDS011;5862;48.718;9.108;2022-07-18T07:41:43;2.90;;;0.98;;
11612;SDS011;5862;48.718;9.108;2022-07-18T07:44:10;1.30;;;1.05;;
11612;SDS011;5862;48.718;9.108;2022-07-18T07:46:36;1.33;;;1.23;;
11612;SDS011;5862;48.718;9.108;2022-07-18T07:49:05;1.40;;;1.17;;
11612;SDS011;5862;48.718;9.108;2022-07-18T07:51:31;1.60;;;1.38;;
11612;SDS011;5862;48.718;9.108;2022-07-18T07:54:01;1.27;;;0.90;;
11612;SDS011;5862;48.718;9.108;2022-07-18T07:56:28;1.77;;;1.08;;
11612;SDS011;5862;48.718;9.108;2022-07-18T07:58:54;2.88;;;1.23;;
11612;SDS011;5862;48.718;9.108;2022-07-18T08:01:23;1.95;;;1.27;;
11612;SDS011;5862;48.718;9.108;2022-07-18T08:03:50;5.20;;;1.75;;
11612;SDS011;5862;48.718;9.108;2022-07-18T08:06:17;1.20;;;1.00;;
11612;SDS011;5862;48.718;9.108;2022-07-18T08:08:44;1.65;;;1.20;;
11612;SDS011;5862;48.718;9.108;2022-07-18T08:11:10;2.08;;;1.10;;
11612;SDS011;5862;48.718;9.108;2022-07-18T08:13:37;1.67;;;1.10;;
11612;SDS011;5862;48.718;9.108;2022-07-18T08:16:04;4.22;;;1.00;;
11612;SDS011;5862;48.718;9.108;2022-07-18T08:18:30;3.83;;;1.10;;
11612;SDS011;5862;48.718;9.108;2022-07-18T08:20:57;2.70;;;1.02;;
11612;SDS011;5862;48.718;9.108;2022-07-18T08:23:26;2.53;;;1.40;;
11612;SDS011;5862;48.718;9.108;2022-07-18T08:25:52;1.45;;;1.35;;
11612;SDS011;5862;48.718;9.108;2022-07-18T08:28:18;2.30;;;1.50;;
11612;SDS011;5862;48.718;9.108;2022-07-18T08:30:47;1.20;;;1.10;;
11612;SDS011;5862;48.718;9.108;2022-07-18T08:33:14;1.73;;;1.02;;
11612;SDS011;5862;48.718;9.108;2022-07-18T08:35:43;1.77;;;1.10;;
11612;SDS011;5862;48.718;9.108;2022-07-18T08:38:11;3.35;;;1.27;;
11612;SDS011;5862;48.718;9.108;2022-07-18T08:40:38;4.07;;;1.27;;
11612;SDS011;5862;48.718;9.108;2022-07-18T08:43:05;1.25;;;1.10;;
11612;SDS011;5862;48.718;9.108;2022-07-18T08:45:49;1.50;;;1.40;;
11612;SDS011;5862;48.718;9.108;2022-07-18T08:48:21;2.40;;;1.23;;
11612;SDS011;5862;48.718;9.108;2022-07-18T08:50:49;1.20;;;1.10;;
11612;SDS011;5862;48.718;9.108;2022-07-18T08:53:16;1.23;;;1.08;;
11612;SDS011;5862;48.718;9.108;2022-07-18T08:55:44;1.55;;;1.10;;
11612;SDS011;5862;48.718;9.108;2022-07-18T08:58:11;1.00;;;1.00;;
11612;SDS011;5862;48.718;9.108;2022-07-18T09:01:01;2.15;;;1.02;;
11612;SDS011;5862;48.718;9.108;2022-07-18T09:03:30;1.23;;;1.13;;
11612;SDS011;5862;48.718;9.108;2022-07-18T09:06:04;1.05;;;0.95;;
11612;SDS011;5862;48.718;9.108;2022-07-18T09:08:33;1.30;;;1.05;;
11612;SDS011;5862;48.718;9.108;2022-07-18T09:11:02;3.22;;;1.20;;
11612;SDS011;5862;48.718;9.108;2022-07-18T09:16:07;1.13;;;1.00;;
11612;SDS011;5862;48.718;9.108;2022-07-18T09:18:38;2.47;;;1.15;;
11612;SDS011;5862;48.718;9.108;2022-07-18T09:21:07;0.80;;;0.80;;
11612;SDS011;5862;48.718;9.108;2022-07-18T09:23:34;1.10;;;0.98;;
11612;SDS011;5862;48.718;9.108;2022-07-18T09:26:02;1.05;;;0.93;;
11612;SDS011;5862;48.718;9.108;2022-07-18T09:28:44;1.35;;;1.10;;
11612;SDS011;5862;48.718;9.108;2022-07-18T09:31:32;1.08;;;0.90;;
11612;SDS011;5862;48.718;9.108;2022-07-18T09:34:02;1.00;;;1.00;;
11612;SDS011;5862;48.718;9.108;2022-07-18T09:36:34;1.52;;;1.17;;
11612;SDS011;5862;48.718;9.108;2022-07-18T09:39:19;2.08;;;0.90;;
11612;SDS011;5862;48.718;9.108;2022-07-18T09:41:46;1.33;;;1.02;;
11612;SDS011;5862;48.718;9.108;2022-07-18T09:44:16;2.50;;;0.90;;
11612;SDS011;5862;48.718;9.108;2022-07-18T09:47:04;0.95;;;0.93;;
11612;SDS011;5862;48.718;9.108;2022-07-18T09:49:31;1.15;;;0.98;;
11612;SDS011;5862;48.718;9.108;2022-07-18T09:52:02;1.17;;;1.00;;
11612;SDS011;5862;48.718;9.108;2022-07-18T09:54:36;1.27;;;1.02;;
11612;SDS011;5862;48.718;9.108;2022-07-18T09:57:09;1.60;;;1.10;;
11612;SDS011;5862;48.718;9.108;2022-07-18T09:59:39;1.08;;;0.98;;
11612;SDS011;5862;48.718;9.108;2022-07-18T10:02:13;0.80;;;0.80;;
11612;SDS011;5862;48.718;9.108;2022-07-18T10:04:43;1.23;;;1.10;;
11612;SDS011;5862;48.718;9.108;2022-07-18T10:07:12;1.98;;;1.35;;
11612;SDS011;5862;48.718;9.108;2022-07-18T10:09:39;2.15;;;1.00;;
11612;SDS011;5862;48.718;9.108;2022-07-18T10:12:05;1.25;;;1.15;;
11612;SDS011;5862;48.718;9.108;2022-07-18T10:14:32;1.23;;;1.10;;
11612;SDS011;5862;48.718;9.108;2022-07-18T10:16:59;2.00;;;1.25;;
11612;SDS011;5862;48.718;9.108;2022-07-18T10:19:28;1.20;;;1.10;;
11612;SDS011;5862;48.718;9.108;2022-07-18T10:21:57;4.82;;;0.95;;
11612;SDS011;5862;48.718;9.108;2022-07-18T10:24:27;1.20;;;0.98;;
11612;SDS011;5862;48.718;9.108;2022-07-18T10:30:13;1.63;;;1.20;;
11612;SDS011;5862;48.718;9.108;2022-07-18T10:32:42;1.45;;;1.35;;
11612;SDS011;5862;48.718;9.108;2022-07-18T10:35:09;1.20;;;1.10;;
11612;SDS011;5862;48.718;9.108;2022-07-18T10:37:39;1.60;;;1.02;;
11612;SDS011;5862;48.718;9.108;2022-07-18T10:40:27;3.05;;;1.17;;
11612;SDS011;5862;48.718;9.108;2022-07-18T10:45:56;1.27;;;1.00;;
11612;SDS011;5862;48.718;9.108;2022-07-18T10:51:09;1.10;;;1.00;;
11612;SDS011;5862;48.718;9.108;2022-07-18T10:53:56;3.03;;;1.27;;
11612;SDS011;5862;48.718;9.108;2022-07-18T10:59:01;1.02;;;0.93;;
11612;SDS011;5862;48.718;9.108;2022-07-18T11:01:50;2.60;;;1.10;;
11612;SDS011;5862;48.718;9.108;2022-07-18T11:04:28;1.40;;;1.30;;
11612;SDS011;5862;48.718;9.108;2022-07-18T11:09:41;1.30;;;1.00;;
11612;SDS011;5862;48.718;9.108;2022-07-18T11:12:24;0.85;;;0.82;;
11612;SDS011;5862;48.718;9.108;2022-07-18T11:15:08;0.90;;;0.90;;
11612;SDS011;5862;48.718;9.108;2022-07-18T11:20:40;2.28;;;1.10;;
11612;SDS011;5862;48.718;9.108;2022-07-18T11:23:17;2.33;;;1.02;;
11612;SDS011;5862;48.718;9.108;2022-07-18T11:25:48;1.17;;;1.08;;
11612;SDS011;5862;48.718;9.108;2022-07-18T11:28:27;0.85;;;0.82;;
11612;SDS011;5862;48.718;9.108;2022-07-18T11:31:04;2.45;;;1.27;;
11612;SDS011;5862;48.718;9.108;2022-07-18T11:33:33;0.80;;;0.80;;
11612;SDS011;5862;48.718;9.108;2022-07-18T11:36:09;1.17;;;1.05;;
11612;SDS011;5862;48.718;9.108;2022-07-18T11:38:45;0.95;;;0.88;;
11612;SDS011;5862;48.718;9.108;2022-07-18T11:41:14;1.25;;;0.90;;
11612;SDS011;5862;48.718;9.108;2022-07-18T11:43:43;1.55;;;1.27;;
11612;SDS011;5862;48.718;9.108;2022-07-18T11:46:13;5.07;;;2.63;;
11612;SDS011;5862;48.718;9.108;2022-07-18T11:48:46;2.58;;;1.70;;
11612;SDS011;5862;48.718;9.108;2022-07-18T11:51:15;3.17;;;1.52;;
11612;SDS011;5862;48.718;9.108;2022-07-18T11:53:49;3.65;;;1.30;;
11612;SDS011;5862;48.718;9.108;2022-07-18T11:56:20;3.33;;;1.30;;
11612;SDS011;5862;48.718;9.108;2022-07-18T11:58:48;3.33;;;1.48;;
11612;SDS011;5862;48.718;9.108;2022-07-18T12:01:21;3.75;;;1.45;;
11612;SDS011;5862;48.718;9.108;2022-07-18T12:03:50;1.35;;;1.25;;
11612;SDS011;5862;48.718;9.108;2022-07-18T12:06:18;2.22;;;1.13;;
11612;SDS011;5862;48.718;9.108;2022-07-18T12:13:59;2.00;;;1.33;;
11612;SDS011;5862;48.718;9.108;2022-07-18T12:22:10;1.23;;;1.13;;
11612;SDS011;5862;48.718;9.108;2022-07-18T12:27:14;1.80;;;1.17;;
11612;SDS011;5862;48.718;9.108;2022-07-18T12:35:29;4.13;;;1.15;;
11612;SDS011;5862;48.718;9.108;2022-07-18T12:37:58;5.03;;;1.42;;
11612;SDS011;5862;48.718;9.108;2022-07-18T12:40:41;2.35;;;1.05;;
11612;SDS011;5862;48.718;9.108;2022-07-18T12:43:11;1.88;;;0.90;;
11612;SDS011;5862;48.718;9.108;2022-07-18T12:45:38;1.33;;;1.00;;
11612;SDS011;5862;48.718;9.108;2022-07-18T12:48:06;3.63;;;0.90;;
11612;SDS011;5862;48.718;9.108;2022-07-18T12:50:33;0.80;;;0.80;;
11612;SDS011;5862;48.718;9.108;2022-07-18T12:53:02;1.25;;;1.10;;
11612;SDS011;5862;48.718;9.108;2022-07-18T12:55:29;1.50;;;1.40;;
11612;SDS011;5862;48.718;9.108;2022-07-18T12:57:57;1.33;;;1.05;;
11612;SDS011;5862;48.718;9.108;2022-07-18T13:00:27;1.48;;;1.13;;
11612;SDS011;5862;48.718;9.108;2022-07-18T13:03:03;1.58;;;1.23;;
11612;SDS011;5862;48.718;9.108;2022-07-18T13:05:29;1.20;;;1.10;;
11612;SDS011;5862;48.718;9.108;2022-07-18T13:07:58;1.10;;;1.00;;
11612;SDS011;5862;48.718;9.108;2022-07-18T13:10:25;1.20;;;1.10;;
11612;SDS011;5862;48.718;9.108;2022-07-18T13:12:51;1.40;;;1.02;;
11612;SDS011;5862;48.718;9.108;2022-07-18T13:15:18;1.08;;;1.00;;
11612;SDS011;5862;48.718;9.108;2022-07-18T13:17:48;1.27;;;1.13;;
11612;SDS011;5862;48.718;9.108;2022-07-18T13:20:15;1.15;;;1.08;;
11612;SDS011;5862;48.718;9.108;2022-07-18T13:22:42;1.20;;;1.10;;
11612;SDS011;5862;48.718;9.108;2022-07-18T13:25:18;2.25;;;1.10;;
11612;SDS011;5862;48.718;9.108;2022-07-18T13:27:48;1.20;;;1.10;;
11612;SDS011;5862;48.718;9.108;2022-07-18T13:30:15;2.15;;;1.30;;
11612;SDS011;5862;48.718;9.108;2022-07-18T13:32:46;1.60;;;1.10;;
11612;SDS011;5862;48.718;9.108;2022-07-18T13:35:13;1.30;;;1.20;;
11612;SDS011;5862;48.718;9.108;2022-07-18T13:37:40;1.30;;;1.20;;
11612;SDS011;5862;48.718;9.108;2022-07-18T13:40:07;1.15;;;0.93;;
11612;SDS011;5862;48.718;9.108;2022-07-18T13:42:35;1.42;;;0.90;;
11612;SDS011;5862;48.718;9.108;2022-07-18T13:45:02;0.90;;;0.90;;
11612;SDS011;5862;48.718;9.108;2022-07-18T13:47:32;1.00;;;1.00;;
11612;SDS011;5862;48.718;9.108;2022-07-18T13:49:58;1.92;;;1.10;;
11612;SDS011;5862;48.718;9.108;2022-07-18T13:52:25;1.25;;;1.05;;
11612;SDS011;5862;48.718;9.108;2022-07-18T13:54:51;1.55;;;1.00;;
11612;SDS011;5862;48.718;9.108;2022-07-18T13:57:21;1.75;;;1.08;;
11612;SDS011;5862;48.718;9.108;2022-07-18T13:59:48;1.48;;;1.05;;
11612;SDS011;5862;48.718;9.108;2022-07-18T14:02:17;1.30;;;1.20;;
11612;SDS011;5862;48.718;9.108;2022-07-18T14:04:44;2.38;;;1.00;;
11612;SDS011;5862;48.718;9.108;2022-07-18T14:07:33;1.13;;;1.02;;
11612;SDS011;5862;48.718;9.108;2022-07-18T14:10:00;1.48;;;1.00;;
11612;SDS011;5862;48.718;9.108;2022-07-18T14:12:26;2.15;;;1.30;;
11612;SDS011;5862;48.718;9.108;2022-07-18T14:14:53;1.50;;;1.40;;
11612;SDS011;5862;48.718;9.108;2022-07-18T14:17:19;1.88;;;1.30;;
11612;SDS011;5862;48.718;9.108;2022-07-18T14:19:50;2.65;;;1.40;;
11612;SDS011;5862;48.718;9.108;2022-07-18T14:22:17;3.42;;;1.30;;
11612;SDS011;5862;48.718;9.108;2022-07-18T14:24:43;1.10;;;1.00;;
11612;SDS011;5862;48.718;9.108;2022-07-18T14:27:09;2.53;;;1.20;;
11612;SDS011;5862;48.718;9.108;2022-07-18T14:29:36;4.00;;;1.30;;
11612;SDS011;5862;48.718;9.108;2022-07-18T14:32:03;1.17;;;1.08;;
11612;SDS011;5862;48.718;9.108;2022-07-18T14:34:30;1.13;;;1.00;;
11612;SDS011;5862;48.718;9.108;2022-07-18T14:37:01;1.25;;;1.00;;
11612;SDS011;5862;48.718;9.108;2022-07-18T14:39:28;2.25;;;1.30;;
11612;SDS011;5862;48.718;9.108;2022-07-18T14:41:54;1.58;;;1.30;;
11612;SDS011;5862;48.718;9.108;2022-07-18T14:44:23;1.30;;;1.10;;
11612;SDS011;5862;48.718;9.108;2022-07-18T14:46:50;1.48;;;1.20;;
11612;SDS011;5862;48.718;9.108;2022-07-18T14:49:17;1.77;;;1.10;;
11612;SDS011;5862;48.718;9.108;2022-07-18T14:51:43;1.23;;;1.10;;
11612;SDS011;5862;48.718;9.108;2022-07-18T14:54:10;1.42;;;1.20;;
11612;SDS011;5862;48.718;9.108;2022-07-18T14:56:38;2.17;;;1.30;;
11612;SDS011;5862;48.718;9.108;2022-07-18T14:59:07;1.30;;;1.20;;
11612;SDS011;5862;48.718;9.108;2022-07-18T15:01:33;1.20;;;1.10;;
11612;SDS011;5862;48.718;9.108;2022-07-18T15:04:01;2.15;;;1.10;;
11612;SDS011;5862;48.718;9.108;2022-07-18T15:06:33;1.30;;;1.20;;
11612;SDS011;5862;48.718;9.108;2022-07-18T15:08:59;2.08;;;1.30;;
11612;SDS011;5862;48.718;9.108;2022-07-18T15:11:28;1.63;;;1.10;;
11612;SDS011;5862;48.718;9.108;2022-07-18T15:13:58;0.93;;;0.90;;
11612;SDS011;5862;48.718;9.108;2022-07-18T15:16:25;2.28;;;1.23;;
11612;SDS011;5862;48.718;9.108;2022-07-18T15:18:54;1.30;;;1.20;;
11612;SDS011;5862;48.718;9.108;2022-07-18T15:21:20;1.55;;;1.08;;
11612;SDS011;5862;48.718;9.108;2022-07-18T15:23:49;2.15;;;1.10;;
11612;SDS011;5862;48.718;9.108;2022-07-18T15:26:15;1.30;;;1.20;;
11612;SDS011;5862;48.718;9.108;2022-07-18T15:28:44;1.75;;;1.40;;
11612;SDS011;5862;48.718;9.108;2022-07-18T15:31:13;2.88;;;1.40;;
11612;SDS011;5862;48.718;9.108;2022-07-18T15:33:42;2.42;;;1.20;;
11612;SDS011;5862;48.718;9.108;2022-07-18T15:36:11;1.80;;;1.40;;
11612;SDS011;5862;48.718;9.108;2022-07-18T15:38:37;1.38;;;1.27;;
11612;SDS011;5862;48.718;9.108;2022-07-18T15:41:07;2.70;;;1.48;;
11612;SDS011;5862;48.718;9.108;2022-07-18T15:43:35;1.63;;;1.23;;
11612;SDS011;5862;48.718;9.108;2022-07-18T15:46:02;3.63;;;1.67;;
11612;SDS011;5862;48.718;9.108;2022-07-18T15:48:34;1.30;;;1.20;;
11612;SDS011;5862;48.718;9.108;2022-07-18T15:51:00;2.60;;;1.33;;